createdAt,value
2019-01-23T00:01:06.151Z,941.64
2019-01-23T00:03:32.479Z,941.65
2019-01-23T00:05:58.826Z,941.64
2019-01-23T00:08:25.206Z,941.69
2019-01-23T00:10:51.614Z,941.27
2019-01-23T00:13:17.967Z,941.43
2019-01-23T00:15:44.379Z,941.38
2019-01-23T00:18:10.758Z,941.39
2019-01-23T00:20:37.168Z,941.21
2019-01-23T00:23:03.567Z,941.36
2019-01-23T00:25:29.947Z,941.53
2019-01-23T00:27:56.370Z,941.23
2019-01-23T00:30:22.688Z,941.39
2019-01-23T00:32:49.031Z,941.59
2019-01-23T00:35:15.427Z,941.41
2019-01-23T00:37:41.807Z,941.82
2019-01-23T00:40:08.155Z,941.33
2019-01-23T00:42:34.538Z,941.64
2019-01-23T00:45:00.914Z,941.23
2019-01-23T00:47:27.327Z,941.24
2019-01-23T00:49:53.730Z,941.23
2019-01-23T00:52:20.073Z,941.14
2019-01-23T00:54:46.445Z,941.41
2019-01-23T00:57:12.821Z,940.99
2019-01-23T00:59:39.153Z,941.44
2019-01-23T01:02:05.524Z,941.28
2019-01-23T01:04:31.820Z,941.11
2019-01-23T01:06:58.133Z,941.41
2019-01-23T01:09:24.432Z,941.09
2019-01-23T01:11:50.743Z,941.14
2019-01-23T01:14:17.047Z,941.19
2019-01-23T01:16:43.357Z,941.12
2019-01-23T01:19:09.659Z,941.09
2019-01-23T01:21:36.014Z,941.06
2019-01-23T01:24:02.323Z,940.97
2019-01-23T01:26:28.633Z,940.97
2019-01-23T01:28:56.128Z,941.19
2019-01-23T01:31:21.251Z,941.21
2019-01-23T01:33:47.551Z,941.13
2019-01-23T01:36:13.905Z,941.15
2019-01-23T01:38:40.262Z,940.95
2019-01-23T01:41:06.566Z,941.03
2019-01-23T01:43:32.872Z,941.03
2019-01-23T01:45:59.195Z,940.93
2019-01-23T01:48:25.517Z,940.91
2019-01-23T01:50:51.877Z,940.88
2019-01-23T01:53:18.189Z,941.04
2019-01-23T01:55:44.503Z,940.91
2019-01-23T01:58:10.815Z,940.81
2019-01-23T02:00:37.120Z,940.99
2019-01-23T02:03:03.429Z,940.78
2019-01-23T02:05:29.736Z,940.78
2019-01-23T02:07:56.047Z,940.71
2019-01-23T02:10:22.348Z,940.77
2019-01-23T02:12:48.662Z,940.74
2019-01-23T02:15:14.967Z,940.70
2019-01-23T02:17:41.272Z,940.65
2019-01-23T02:20:07.576Z,940.64
2019-01-23T02:22:33.883Z,940.56
2019-01-23T02:25:00.200Z,940.63
2019-01-23T02:27:26.495Z,940.43
2019-01-23T02:29:52.793Z,940.42
2019-01-23T02:32:19.103Z,940.57
2019-01-23T02:34:45.413Z,940.47
2019-01-23T02:37:11.720Z,940.49
2019-01-23T02:39:38.021Z,940.55
2019-01-23T02:42:04.336Z,940.60
2019-01-23T02:44:30.637Z,940.64
2019-01-23T02:46:56.973Z,940.75
2019-01-23T02:49:23.285Z,940.80
2019-01-23T02:51:49.594Z,940.64
2019-01-23T02:54:15.905Z,940.68
2019-01-23T02:56:42.208Z,940.45
2019-01-23T02:59:08.526Z,940.53
2019-01-23T03:01:34.831Z,940.59
2019-01-23T03:04:01.142Z,940.41
2019-01-23T03:06:27.444Z,940.63
2019-01-23T03:08:53.757Z,940.62
2019-01-23T03:11:20.072Z,940.65
2019-01-23T03:13:46.381Z,940.54
2019-01-23T03:16:12.691Z,940.50
2019-01-23T03:18:38.995Z,940.57
2019-01-23T03:21:05.310Z,940.47
2019-01-23T03:23:31.620Z,940.48
2019-01-23T03:25:57.933Z,940.50
2019-01-23T03:28:24.235Z,940.39
2019-01-23T03:30:50.546Z,940.28
2019-01-23T03:33:16.858Z,940.42
2019-01-23T03:35:43.156Z,940.43
2019-01-23T03:38:09.475Z,940.38
2019-01-23T03:40:35.781Z,940.35
2019-01-23T03:43:02.083Z,940.37
2019-01-23T03:45:28.393Z,940.48
2019-01-23T03:47:54.703Z,940.36
2019-01-23T03:50:21.006Z,940.28
2019-01-23T03:52:47.325Z,940.15
2019-01-23T03:55:13.633Z,940.16
2019-01-23T03:57:39.965Z,940.16
2019-01-23T04:00:06.271Z,940.10
2019-01-23T04:02:32.579Z,940.31
2019-01-23T04:04:58.889Z,940.21
2019-01-23T04:07:25.183Z,940.01
2019-01-23T04:09:51.490Z,940.25
2019-01-23T04:12:17.793Z,940.25
2019-01-23T04:14:44.104Z,940.23
2019-01-23T04:17:10.405Z,940.27
2019-01-23T04:19:36.745Z,940.20
2019-01-23T04:22:03.016Z,940.35
2019-01-23T04:24:29.334Z,940.33
2019-01-23T04:26:55.633Z,940.33
2019-01-23T04:29:21.941Z,940.44
2019-01-23T04:31:48.248Z,940.48
2019-01-23T04:34:14.556Z,940.47
2019-01-23T04:36:40.864Z,940.51
2019-01-23T04:39:07.176Z,940.48
2019-01-23T04:41:33.495Z,940.55
2019-01-23T04:43:59.805Z,940.54
2019-01-23T04:46:26.116Z,940.63
2019-01-23T04:48:52.445Z,940.62
2019-01-23T04:51:18.765Z,940.72
2019-01-23T04:53:45.074Z,940.63
2019-01-23T04:56:11.380Z,940.54
2019-01-23T04:58:37.695Z,940.71
2019-01-23T05:01:04.000Z,940.46
2019-01-23T05:03:30.305Z,940.64
2019-01-23T05:05:56.611Z,940.67
2019-01-23T05:08:22.917Z,940.71
2019-01-23T05:10:49.228Z,940.59
2019-01-23T05:13:15.537Z,940.51
2019-01-23T05:15:41.870Z,940.63
2019-01-23T05:18:08.178Z,940.78
2019-01-23T05:20:34.506Z,940.78
2019-01-23T05:23:00.809Z,940.69
2019-01-23T05:25:27.123Z,940.78
2019-01-23T05:27:53.424Z,940.74
2019-01-23T05:30:19.737Z,940.83
2019-01-23T05:32:46.043Z,940.69
2019-01-23T05:35:12.354Z,940.86
2019-01-23T05:37:38.665Z,940.85
2019-01-23T05:40:04.976Z,940.68
2019-01-23T05:42:31.281Z,940.77
2019-01-23T05:44:57.591Z,940.91
2019-01-23T05:47:23.904Z,940.71
2019-01-23T05:49:50.207Z,940.78
2019-01-23T05:52:16.523Z,940.75
2019-01-23T05:54:42.823Z,940.99
2019-01-23T05:57:09.129Z,940.38
2019-01-23T05:59:35.447Z,940.85
2019-01-23T06:02:01.749Z,940.78
2019-01-23T06:04:28.053Z,940.64
2019-01-23T06:06:54.366Z,940.96
2019-01-23T06:09:20.787Z,940.92
2019-01-23T06:11:47.057Z,940.68
2019-01-23T06:14:13.360Z,940.77
2019-01-23T06:16:39.683Z,940.88
2019-01-23T06:19:05.989Z,940.48
2019-01-23T06:21:32.304Z,940.81
2019-01-23T06:23:58.612Z,940.53
2019-01-23T06:26:24.928Z,940.62
2019-01-23T06:28:51.245Z,940.58
2019-01-23T06:31:17.562Z,940.51
2019-01-23T06:33:43.879Z,940.59
2019-01-23T06:36:10.169Z,940.54
2019-01-23T06:38:36.511Z,940.51
2019-01-23T06:41:02.782Z,940.52
2019-01-23T06:43:29.088Z,940.53
2019-01-23T06:45:55.440Z,940.59
2019-01-23T06:48:21.744Z,940.60
2019-01-23T06:50:48.052Z,940.64
2019-01-23T06:53:14.399Z,940.47
2019-01-23T06:55:40.711Z,940.49
2019-01-23T06:58:07.017Z,940.70
2019-01-23T07:00:33.322Z,940.46
2019-01-23T07:02:59.634Z,940.43
2019-01-23T07:05:25.948Z,940.49
2019-01-23T07:07:52.280Z,940.70
2019-01-23T07:10:18.561Z,940.54
2019-01-23T07:12:44.863Z,940.14
2019-01-23T07:15:11.172Z,940.56
2019-01-23T07:17:37.475Z,940.35
2019-01-23T07:20:03.793Z,940.29
2019-01-23T07:22:30.143Z,940.46
2019-01-23T07:24:56.443Z,940.43
2019-01-23T07:27:22.752Z,940.46
2019-01-23T07:29:49.074Z,940.49
2019-01-23T07:32:15.384Z,940.44
2019-01-23T07:34:41.684Z,940.54
2019-01-23T07:37:07.995Z,940.51
2019-01-23T07:39:34.298Z,940.55
2019-01-23T07:42:00.609Z,940.48
2019-01-23T07:44:26.914Z,940.55
2019-01-23T07:46:53.218Z,940.58
2019-01-23T07:49:19.528Z,940.63
2019-01-23T07:51:45.845Z,940.65
2019-01-23T07:54:12.147Z,940.60
2019-01-23T07:56:38.452Z,940.63
2019-01-23T07:59:04.755Z,940.52
2019-01-23T08:01:31.064Z,940.55
2019-01-23T08:03:57.369Z,940.54
2019-01-23T08:06:23.688Z,940.46
2019-01-23T08:08:49.992Z,940.49
2019-01-23T08:11:16.299Z,940.42
2019-01-23T08:13:42.629Z,940.67
2019-01-23T08:16:08.914Z,940.52
2019-01-23T08:18:35.223Z,940.48
2019-01-23T08:21:01.530Z,940.52
2019-01-23T08:23:27.835Z,940.37
2019-01-23T08:25:54.141Z,940.66
2019-01-23T08:28:20.448Z,940.44
2019-01-23T08:30:46.756Z,940.57
2019-01-23T08:33:13.066Z,940.62
2019-01-23T08:35:39.375Z,940.56
2019-01-23T08:38:05.684Z,940.65
2019-01-23T08:40:31.990Z,940.63
2019-01-23T08:42:58.300Z,940.52
2019-01-23T08:45:24.610Z,940.59
2019-01-23T08:47:50.915Z,940.76
2019-01-23T08:50:17.220Z,940.73
2019-01-23T08:52:43.580Z,940.72
2019-01-23T08:55:09.888Z,940.78
2019-01-23T08:57:36.197Z,940.76
2019-01-23T09:00:02.508Z,940.76
2019-01-23T09:02:28.816Z,940.71
2019-01-23T09:04:55.122Z,940.82
2019-01-23T09:07:21.428Z,940.82
2019-01-23T09:09:47.734Z,940.81
2019-01-23T09:12:14.095Z,940.75
2019-01-23T09:14:40.401Z,940.76
2019-01-23T09:17:06.717Z,940.77
2019-01-23T09:19:33.025Z,940.64
2019-01-23T09:21:59.337Z,940.46
2019-01-23T09:24:25.654Z,940.48
2019-01-23T09:26:51.963Z,940.50
2019-01-23T09:29:18.283Z,940.42
2019-01-23T09:31:44.587Z,940.37
2019-01-23T09:34:10.895Z,940.44
2019-01-23T09:36:37.199Z,940.35
2019-01-23T09:39:03.504Z,940.28
2019-01-23T09:41:29.812Z,940.26
2019-01-23T09:43:56.115Z,940.08
2019-01-23T09:46:22.421Z,940.02
2019-01-23T09:48:48.736Z,939.95
2019-01-23T09:51:15.044Z,939.91
2019-01-23T09:53:41.365Z,939.66
2019-01-23T09:56:07.671Z,939.63
2019-01-23T09:58:33.980Z,939.59
2019-01-23T10:01:00.292Z,939.57
2019-01-23T10:03:26.597Z,939.68
2019-01-23T10:05:52.901Z,939.67
2019-01-23T10:08:19.210Z,939.70
2019-01-23T10:10:45.519Z,939.82
2019-01-23T10:13:11.833Z,939.95
2019-01-23T10:15:38.135Z,939.86
2019-01-23T10:18:04.447Z,939.72
2019-01-23T10:20:30.758Z,939.76
2019-01-23T10:22:57.071Z,939.44
2019-01-23T10:25:23.370Z,939.45
2019-01-23T10:27:49.688Z,939.22
2019-01-23T10:30:15.985Z,939.17
2019-01-23T10:32:42.298Z,939.27
2019-01-23T10:35:08.603Z,939.35
2019-01-23T10:37:34.912Z,939.27
2019-01-23T10:40:01.220Z,939.11
2019-01-23T10:42:27.519Z,939.13
2019-01-23T10:44:53.825Z,939.13
2019-01-23T10:47:20.140Z,938.87
2019-01-23T10:49:46.447Z,938.80
2019-01-23T10:52:12.755Z,938.88
2019-01-23T10:54:39.067Z,938.93
2019-01-23T10:57:05.377Z,938.77
2019-01-23T10:59:31.675Z,938.82
2019-01-23T11:01:57.985Z,938.67
2019-01-23T11:04:24.301Z,938.51
2019-01-23T11:06:50.610Z,938.45
2019-01-23T11:09:17.009Z,938.78
2019-01-23T11:11:43.238Z,938.79
2019-01-23T11:14:09.543Z,938.56
2019-01-23T11:16:35.848Z,938.58
2019-01-23T11:19:02.158Z,938.63
2019-01-23T11:21:28.478Z,938.43
2019-01-23T11:23:54.787Z,938.63
2019-01-23T11:26:21.109Z,938.54
2019-01-23T11:28:47.412Z,938.25
2019-01-23T11:31:20.199Z,938.25
2019-01-23T11:33:40.025Z,938.26
2019-01-23T11:36:06.335Z,938.35
2019-01-23T11:38:32.651Z,938.15
2019-01-23T11:40:58.965Z,938.32
2019-01-23T11:43:25.272Z,938.32
2019-01-23T11:45:51.580Z,938.26
2019-01-23T11:48:17.891Z,938.38
2019-01-23T11:50:44.201Z,938.29
2019-01-23T11:53:10.510Z,938.15
2019-01-23T11:55:36.862Z,938.16
2019-01-23T11:58:03.190Z,938.18
2019-01-23T12:00:29.492Z,938.07
2019-01-23T12:02:55.812Z,938.12
2019-01-23T12:05:22.147Z,938.03
2019-01-23T12:07:48.459Z,938.08
2019-01-23T12:10:14.767Z,938.20
2019-01-23T12:12:41.077Z,938.19
2019-01-23T12:15:07.396Z,938.17
2019-01-23T12:17:33.694Z,938.05
2019-01-23T12:20:00.005Z,937.98
2019-01-23T12:22:26.312Z,937.93
2019-01-23T12:24:52.626Z,937.93
2019-01-23T12:27:18.933Z,937.84
2019-01-23T12:29:45.241Z,937.90
2019-01-23T12:32:11.577Z,937.89
2019-01-23T12:34:37.857Z,937.90
2019-01-23T12:37:04.185Z,937.91
2019-01-23T12:39:30.478Z,937.84
2019-01-23T12:41:56.783Z,937.69
2019-01-23T12:44:23.095Z,937.76
2019-01-23T12:46:49.405Z,937.75
2019-01-23T12:49:15.717Z,937.77
2019-01-23T12:51:42.023Z,937.67
2019-01-23T12:54:08.331Z,937.71
2019-01-23T12:56:34.641Z,937.76
2019-01-23T12:59:00.943Z,937.81
2019-01-23T13:01:27.252Z,937.74
2019-01-23T13:03:53.564Z,937.70
2019-01-23T13:06:19.869Z,937.67
2019-01-23T13:08:46.180Z,937.60
2019-01-23T13:11:12.484Z,937.57
2019-01-23T13:13:38.792Z,937.56
2019-01-23T13:16:05.105Z,937.50
2019-01-23T13:18:32.146Z,937.36
2019-01-23T13:20:57.761Z,937.29
2019-01-23T13:23:24.069Z,937.43
2019-01-23T13:25:50.405Z,937.46
2019-01-23T13:28:16.710Z,937.46
2019-01-23T13:30:43.063Z,937.43
2019-01-23T13:33:09.368Z,937.34
2019-01-23T13:35:35.710Z,937.25
2019-01-23T13:38:02.017Z,937.18
2019-01-23T13:40:28.334Z,937.32
2019-01-23T13:42:54.636Z,937.37
2019-01-23T13:45:20.944Z,937.34
2019-01-23T13:47:47.253Z,937.31
2019-01-23T13:50:13.556Z,937.28
2019-01-23T13:52:39.868Z,937.37
2019-01-23T13:55:06.170Z,937.30
2019-01-23T13:57:32.476Z,937.25
2019-01-23T13:59:58.801Z,937.28
2019-01-23T14:02:25.109Z,937.19
2019-01-23T14:04:51.415Z,937.26
2019-01-23T14:07:17.724Z,937.31
2019-01-23T14:09:44.030Z,937.28
2019-01-23T14:12:10.496Z,937.21
2019-01-23T14:14:36.800Z,937.19
2019-01-23T14:17:03.103Z,937.08
2019-01-23T14:19:29.409Z,937.12
2019-01-23T14:21:55.711Z,937.09
2019-01-23T14:24:22.019Z,937.17
2019-01-23T14:26:48.353Z,937.14
2019-01-23T14:29:14.660Z,937.17
2019-01-23T14:31:40.965Z,937.16
2019-01-23T14:34:07.279Z,937.12
2019-01-23T14:36:33.586Z,937.14
2019-01-23T14:38:59.896Z,937.10
2019-01-23T14:41:26.204Z,937.02
2019-01-23T14:43:52.508Z,937.05
2019-01-23T14:46:18.822Z,936.99
2019-01-23T14:48:45.124Z,936.94
2019-01-23T14:51:11.588Z,936.94
2019-01-23T14:53:37.893Z,936.89
2019-01-23T14:56:04.203Z,936.90
2019-01-23T14:58:30.508Z,936.84
2019-01-23T15:00:56.831Z,936.87
2019-01-23T15:03:23.128Z,936.86
2019-01-23T15:05:49.454Z,936.82
2019-01-23T15:08:15.768Z,936.77
2019-01-23T15:10:42.097Z,936.80
2019-01-23T15:13:08.407Z,936.75
2019-01-23T15:15:34.724Z,936.76
2019-01-23T15:18:01.150Z,936.71
2019-01-23T15:20:27.507Z,936.80
2019-01-23T15:22:53.836Z,936.72
2019-01-23T15:25:20.143Z,936.70
2019-01-23T15:27:46.448Z,936.63
2019-01-23T15:30:12.770Z,936.56
2019-01-23T15:32:39.075Z,936.52
2019-01-23T15:35:05.380Z,936.48
2019-01-23T15:37:31.693Z,936.48
2019-01-23T15:39:58.010Z,936.46
2019-01-23T15:42:24.318Z,936.45
2019-01-23T15:44:50.674Z,936.44
2019-01-23T15:47:17.020Z,936.37
2019-01-23T15:49:43.491Z,936.37
2019-01-23T15:52:09.799Z,936.48
2019-01-23T15:54:36.109Z,936.43
2019-01-23T15:57:02.417Z,936.38
2019-01-23T15:59:28.723Z,936.44
2019-01-23T16:01:55.101Z,936.42
2019-01-23T16:04:21.405Z,936.46
2019-01-23T16:06:47.714Z,936.41
2019-01-23T16:09:14.020Z,936.40
2019-01-23T16:11:40.332Z,936.37
2019-01-23T16:14:06.634Z,936.34
2019-01-23T16:16:32.956Z,936.38
2019-01-23T16:18:59.258Z,936.37
2019-01-23T16:21:25.575Z,936.33
2019-01-23T16:23:51.903Z,936.46
2019-01-23T16:26:20.795Z,936.43
2019-01-23T16:28:46.928Z,936.45
2019-01-23T16:31:13.249Z,936.43
2019-01-23T16:33:39.558Z,936.37
2019-01-23T16:36:05.894Z,936.35
2019-01-23T16:38:32.245Z,936.22
2019-01-23T16:40:58.555Z,936.28
2019-01-23T16:43:24.889Z,936.30
2019-01-23T16:45:51.209Z,936.27
2019-01-23T16:48:17.515Z,936.14
2019-01-23T16:50:43.829Z,936.17
2019-01-23T16:53:10.147Z,936.16
2019-01-23T16:55:36.451Z,936.17
2019-01-23T16:58:02.756Z,936.25
2019-01-23T17:00:29.064Z,936.23
2019-01-23T17:02:55.368Z,936.12
2019-01-23T17:05:21.686Z,936.12
2019-01-23T17:07:47.997Z,936.11
2019-01-23T17:10:14.319Z,936.10
2019-01-23T17:12:40.620Z,936.09
2019-01-23T17:15:06.926Z,936.05
2019-01-23T17:17:33.314Z,935.96
2019-01-23T17:19:59.618Z,935.80
2019-01-23T17:22:25.916Z,935.87
2019-01-23T17:24:52.233Z,935.89
2019-01-23T17:27:18.555Z,935.87
2019-01-23T17:29:44.859Z,935.84
2019-01-23T17:32:11.203Z,935.80
2019-01-23T17:34:37.600Z,935.82
2019-01-23T17:37:04.126Z,935.77
2019-01-23T17:39:30.432Z,935.76
2019-01-23T17:41:56.752Z,935.82
2019-01-23T17:44:23.065Z,935.81
2019-01-23T17:46:49.358Z,935.90
2019-01-23T17:49:15.677Z,935.70
2019-01-23T17:51:41.993Z,935.66
2019-01-23T17:54:08.308Z,935.60
2019-01-23T17:56:34.615Z,935.56
2019-01-23T17:59:01.308Z,935.51
2019-01-23T18:01:27.229Z,935.54
2019-01-23T18:03:53.533Z,935.52
2019-01-23T18:06:19.858Z,935.48
2019-01-23T18:08:46.167Z,935.38
2019-01-23T18:11:12.472Z,935.56
2019-01-23T18:13:38.804Z,935.53
2019-01-23T18:16:05.107Z,935.50
2019-01-23T18:18:31.411Z,935.50
2019-01-23T18:20:57.715Z,935.52
2019-01-23T18:23:24.014Z,935.49
2019-01-23T18:25:50.404Z,935.40
2019-01-23T18:28:16.765Z,935.23
2019-01-23T18:30:43.133Z,935.23
2019-01-23T18:33:09.443Z,935.21
2019-01-23T18:35:35.747Z,935.18
2019-01-23T18:38:02.069Z,935.26
2019-01-23T18:40:28.399Z,935.21
2019-01-23T18:42:54.719Z,935.22
2019-01-23T18:45:21.024Z,935.28
2019-01-23T18:47:47.328Z,935.32
2019-01-23T18:50:13.693Z,935.45
2019-01-23T18:52:40.316Z,935.32
2019-01-23T18:55:06.931Z,935.35
2019-01-23T18:57:33.240Z,935.36
2019-01-23T18:59:59.633Z,935.41
2019-01-23T19:02:25.970Z,935.17
2019-01-23T19:04:52.342Z,935.17
2019-01-23T19:07:18.789Z,935.10
2019-01-23T19:09:45.096Z,934.99
2019-01-23T19:12:11.402Z,934.90
2019-01-23T19:14:37.715Z,934.99
2019-01-23T19:17:04.024Z,935.02
2019-01-23T19:19:30.406Z,934.90
2019-01-23T19:21:56.808Z,934.77
2019-01-23T19:24:23.170Z,934.88
2019-01-23T19:26:49.530Z,934.96
2019-01-23T19:29:15.885Z,934.90
2019-01-23T19:31:42.513Z,934.85
2019-01-23T19:34:08.815Z,934.83
2019-01-23T19:36:35.218Z,934.79
2019-01-23T19:39:01.577Z,934.60
2019-01-23T19:41:27.942Z,934.72
2019-01-23T19:43:55.095Z,934.72
2019-01-23T19:46:21.447Z,934.72
2019-01-23T19:48:50.093Z,934.62
2019-01-23T19:51:16.411Z,934.76
2019-01-23T19:53:42.774Z,934.75
2019-01-23T19:56:09.181Z,934.67
2019-01-23T19:58:35.538Z,934.68
2019-01-23T20:01:01.965Z,934.72
2019-01-23T20:03:28.614Z,934.55
2019-01-23T20:05:54.986Z,934.50
2019-01-23T20:08:21.418Z,934.55
2019-01-23T20:10:47.746Z,934.60
2019-01-23T20:13:14.138Z,934.57
2019-01-23T20:15:41.947Z,934.43
2019-01-23T20:18:07.211Z,934.28
2019-01-23T20:20:35.958Z,934.26
2019-01-23T20:22:59.934Z,934.10
2019-01-23T20:25:27.727Z,934.04
2019-01-23T20:27:53.688Z,934.03
2019-01-23T20:30:21.162Z,933.93
2019-01-23T20:32:47.570Z,934.01
2019-01-23T20:35:13.929Z,933.94
2019-01-23T20:37:43.576Z,934.00
2019-01-23T20:40:06.668Z,933.83
2019-01-23T20:42:33.001Z,933.83
2019-01-23T20:44:59.356Z,933.79
2019-01-23T20:47:25.719Z,933.71
2019-01-23T20:49:52.136Z,933.81
2019-01-23T20:52:18.499Z,933.92
2019-01-23T20:54:44.805Z,933.90
2019-01-23T20:57:11.183Z,933.73
2019-01-23T20:59:37.550Z,933.64
2019-01-23T21:02:03.916Z,933.51
2019-01-23T21:04:30.311Z,933.53
2019-01-23T21:06:56.691Z,933.48
2019-01-23T21:09:23.369Z,933.51
2019-01-23T21:11:49.730Z,933.41
2019-01-23T21:14:16.136Z,933.33
2019-01-23T21:16:42.514Z,933.39
2019-01-23T21:19:08.932Z,933.43
2019-01-23T21:21:35.266Z,933.49
2019-01-23T21:24:01.859Z,933.37
2019-01-23T21:26:28.216Z,933.55
2019-01-23T21:28:54.611Z,933.67
2019-01-23T21:31:20.931Z,933.48
2019-01-23T21:33:47.241Z,933.42
2019-01-23T21:36:14.735Z,933.49
2019-01-23T21:38:39.899Z,933.52
2019-01-23T21:41:06.166Z,933.53
2019-01-23T21:43:32.472Z,933.44
2019-01-23T21:45:58.790Z,933.38
2019-01-23T21:48:25.177Z,933.29
2019-01-23T21:50:51.487Z,933.49
2019-01-23T21:53:17.854Z,933.57
2019-01-23T21:55:44.218Z,933.41
2019-01-23T21:58:10.525Z,933.33
2019-01-23T22:00:36.831Z,933.38
2019-01-23T22:03:03.159Z,933.31
2019-01-23T22:05:29.469Z,933.28
2019-01-23T22:07:58.547Z,933.22
2019-01-23T22:10:24.862Z,933.28
2019-01-23T22:12:51.170Z,933.22
2019-01-23T22:15:17.481Z,933.20
2019-01-23T22:17:43.808Z,933.26
2019-01-23T22:20:10.120Z,933.30
2019-01-23T22:22:36.431Z,933.28
2019-01-23T22:25:02.773Z,933.31
2019-01-23T22:27:29.124Z,933.28
2019-01-23T22:29:55.458Z,933.21
2019-01-23T22:32:21.800Z,933.19
2019-01-23T22:34:48.177Z,933.18
2019-01-23T22:37:14.530Z,933.24
2019-01-23T22:39:40.841Z,933.24
2019-01-23T22:42:07.147Z,933.34
2019-01-23T22:44:33.541Z,933.25
2019-01-23T22:46:59.905Z,933.20
2019-01-23T22:49:26.289Z,933.12
2019-01-23T22:51:52.637Z,933.13
2019-01-23T22:54:19.011Z,933.08
2019-01-23T22:56:45.349Z,933.00
2019-01-23T22:59:11.712Z,933.03
2019-01-23T23:01:38.024Z,933.11
2019-01-23T23:04:04.424Z,933.05
2019-01-23T23:06:30.720Z,933.13
2019-01-23T23:08:57.065Z,933.14
2019-01-23T23:11:23.419Z,933.09
2019-01-23T23:13:49.822Z,933.09
2019-01-23T23:16:16.134Z,933.06
2019-01-23T23:18:42.521Z,933.03
2019-01-23T23:21:08.832Z,932.93
2019-01-23T23:23:35.136Z,932.79
2019-01-23T23:26:01.442Z,932.75
2019-01-23T23:28:27.749Z,932.72
2019-01-23T23:30:54.122Z,932.73
2019-01-23T23:33:20.402Z,932.71
2019-01-23T23:35:46.777Z,932.82
2019-01-23T23:38:13.080Z,932.69
2019-01-23T23:40:39.448Z,932.60
2019-01-23T23:43:05.832Z,932.50
2019-01-23T23:45:32.234Z,932.38
2019-01-23T23:47:58.588Z,932.31
2019-01-23T23:50:24.891Z,932.23
2019-01-23T23:52:51.199Z,932.14
2019-01-23T23:55:17.587Z,932.12
2019-01-23T23:57:43.961Z,932.10
